createdAt,value
2022-12-09T00:01:24.481Z,-0.40
2022-12-09T00:03:51.672Z,-0.30
2022-12-09T00:06:27.646Z,-0.20
2022-12-09T00:08:56.660Z,-0.20
2022-12-09T00:11:24.343Z,-0.10
2022-12-09T00:13:53.281Z,-0.20
2022-12-09T00:16:21.046Z,-0.20
2022-12-09T00:18:48.916Z,-0.20
2022-12-09T00:21:15.692Z,0.00
2022-12-09T00:23:42.897Z,0.00
2022-12-09T00:26:10.629Z,0.00
2022-12-09T00:28:38.152Z,0.00
2022-12-09T00:31:06.237Z,0.00
2022-12-09T00:33:35.089Z,0.10
2022-12-09T00:36:10.264Z,0.10
2022-12-09T00:38:38.141Z,0.20
2022-12-09T00:41:05.809Z,0.20
2022-12-09T00:43:33.580Z,0.20
2022-12-09T00:46:01.030Z,0.10
2022-12-09T00:48:28.251Z,0.00
2022-12-09T00:50:55.410Z,0.10
2022-12-09T00:53:22.592Z,0.00
2022-12-09T00:55:49.727Z,0.20
2022-12-09T00:58:16.611Z,0.20
2022-12-09T01:00:43.530Z,0.30
2022-12-09T01:03:18.005Z,0.50
2022-12-09T01:05:45.010Z,0.50
2022-12-09T01:08:13.035Z,0.40
2022-12-09T01:10:41.585Z,0.40
2022-12-09T01:13:08.609Z,0.40
2022-12-09T01:15:37.380Z,0.40
2022-12-09T01:18:05.096Z,0.50
2022-12-09T01:20:32.200Z,0.50
2022-12-09T01:23:00.047Z,0.50
2022-12-09T01:25:27.073Z,0.50
2022-12-09T01:27:54.020Z,0.50
2022-12-09T01:30:21.057Z,0.40
2022-12-09T01:32:47.988Z,0.40
2022-12-09T01:35:15.512Z,0.40
2022-12-09T01:37:42.634Z,0.50
2022-12-09T01:40:16.981Z,0.50
2022-12-09T01:42:44.483Z,0.60
2022-12-09T01:45:22.003Z,0.60
2022-12-09T01:47:57.868Z,0.60
2022-12-09T01:50:27.281Z,0.60
2022-12-09T01:52:54.415Z,0.70
2022-12-09T01:55:21.388Z,0.80
2022-12-09T01:57:48.953Z,0.80
2022-12-09T02:00:16.310Z,0.80
2022-12-09T02:02:46.177Z,0.90
2022-12-09T02:05:13.879Z,0.90
2022-12-09T02:07:42.039Z,0.90
2022-12-09T02:10:14.386Z,0.90
2022-12-09T02:13:04.633Z,0.80
2022-12-09T02:15:48.099Z,0.80
2022-12-09T02:18:33.932Z,0.80
2022-12-09T02:21:02.119Z,0.70
2022-12-09T02:23:37.947Z,0.70
2022-12-09T02:26:11.480Z,0.80
2022-12-09T02:29:16.117Z,0.80
2022-12-09T02:31:46.239Z,0.70
2022-12-09T02:34:20.365Z,0.80
2022-12-09T02:37:08.576Z,0.80
2022-12-09T02:39:51.301Z,0.80
2022-12-09T02:42:21.651Z,0.80
2022-12-09T02:44:50.665Z,0.80
2022-12-09T02:47:21.366Z,0.80
2022-12-09T02:49:55.926Z,0.90
2022-12-09T02:52:23.219Z,0.90
2022-12-09T02:54:51.509Z,0.90
2022-12-09T02:57:24.047Z,0.90
2022-12-09T02:59:51.242Z,0.90
2022-12-09T03:02:33.383Z,0.80
2022-12-09T03:05:25.094Z,0.80
2022-12-09T03:08:02.628Z,0.90
2022-12-09T03:11:01.131Z,0.90
2022-12-09T03:13:41.166Z,0.90
2022-12-09T03:16:19.415Z,0.90
2022-12-09T03:18:52.839Z,0.90
2022-12-09T03:21:22.656Z,0.90
2022-12-09T03:23:52.962Z,0.90
2022-12-09T03:26:20.729Z,0.80
2022-12-09T03:28:50.748Z,0.80
2022-12-09T03:31:21.509Z,0.90
2022-12-09T03:33:53.175Z,0.90
2022-12-09T03:36:23.096Z,0.90
2022-12-09T03:38:52.576Z,0.90
2022-12-09T03:41:29.620Z,1.00
2022-12-09T03:44:04.586Z,1.00
2022-12-09T03:46:32.202Z,1.00
2022-12-09T03:48:59.247Z,1.00
2022-12-09T03:51:34.027Z,1.00
2022-12-09T03:54:29.760Z,0.90
2022-12-09T03:56:58.479Z,0.90
2022-12-09T03:59:31.307Z,0.90
2022-12-09T04:01:58.353Z,1.00
2022-12-09T04:04:25.362Z,1.00
2022-12-09T04:06:54.509Z,1.00
2022-12-09T04:09:21.758Z,0.90
2022-12-09T04:11:48.678Z,0.90
2022-12-09T04:14:16.094Z,0.90
2022-12-09T04:16:44.492Z,0.90
2022-12-09T04:19:11.800Z,0.90
2022-12-09T04:21:38.705Z,0.80
2022-12-09T04:24:05.855Z,0.90
2022-12-09T04:26:33.012Z,0.90
2022-12-09T04:29:00.625Z,1.00
2022-12-09T04:31:27.675Z,0.80
2022-12-09T04:33:55.012Z,0.80
2022-12-09T04:36:22.042Z,0.90
2022-12-09T04:38:48.852Z,0.90
2022-12-09T04:41:16.429Z,0.80
2022-12-09T04:43:43.978Z,0.80
2022-12-09T04:46:13.667Z,0.90
2022-12-09T04:48:40.751Z,0.90
2022-12-09T04:51:12.383Z,0.80
2022-12-09T04:53:40.042Z,0.80
2022-12-09T04:56:21.454Z,0.80
2022-12-09T04:58:50.120Z,0.80
2022-12-09T05:01:22.593Z,0.80
2022-12-09T05:03:54.358Z,0.80
2022-12-09T05:06:22.990Z,0.90
2022-12-09T05:08:50.719Z,0.80
2022-12-09T05:11:19.990Z,0.80
2022-12-09T05:13:47.358Z,0.90
2022-12-09T05:16:17.435Z,1.00
2022-12-09T05:18:46.536Z,0.90
2022-12-09T05:21:19.407Z,1.00
2022-12-09T05:23:46.735Z,1.10
2022-12-09T05:26:17.807Z,0.90
2022-12-09T05:28:45.151Z,0.90
2022-12-09T05:31:17.174Z,0.90
2022-12-09T05:33:44.920Z,0.90
2022-12-09T05:36:14.415Z,0.90
2022-12-09T05:38:41.782Z,0.90
2022-12-09T05:41:09.155Z,1.00
2022-12-09T05:43:37.120Z,1.00
2022-12-09T05:46:06.701Z,1.00
2022-12-09T05:48:34.587Z,0.90
2022-12-09T05:51:04.748Z,1.00
2022-12-09T05:53:32.139Z,1.00
2022-12-09T05:55:59.349Z,1.00
2022-12-09T05:58:26.448Z,1.00
2022-12-09T06:00:56.640Z,0.90
2022-12-09T06:03:25.094Z,0.90
2022-12-09T06:05:52.353Z,0.80
2022-12-09T06:08:19.753Z,0.80
2022-12-09T06:10:47.272Z,0.80
2022-12-09T06:13:14.732Z,0.80
2022-12-09T06:15:41.871Z,0.80
2022-12-09T06:18:09.275Z,0.90
2022-12-09T06:20:41.107Z,0.80
2022-12-09T06:23:08.074Z,0.80
2022-12-09T06:25:35.785Z,0.80
2022-12-09T06:28:03.384Z,0.80
2022-12-09T06:30:30.752Z,0.70
2022-12-09T06:32:57.822Z,0.80
2022-12-09T06:35:25.232Z,0.80
2022-12-09T06:37:53.565Z,0.70
2022-12-09T06:40:24.179Z,0.70
2022-12-09T06:42:52.502Z,0.70
2022-12-09T06:45:20.605Z,0.70
2022-12-09T06:47:48.426Z,0.60
2022-12-09T06:50:16.229Z,0.60
2022-12-09T06:52:43.568Z,0.60
2022-12-09T06:55:11.351Z,0.60
2022-12-09T06:57:38.898Z,0.60
2022-12-09T07:00:06.597Z,0.60
2022-12-09T07:02:36.765Z,0.70
2022-12-09T07:05:04.708Z,0.60
2022-12-09T07:07:33.151Z,0.60
2022-12-09T07:10:03.173Z,0.60
2022-12-09T07:12:30.335Z,0.60
2022-12-09T07:14:57.576Z,0.60
2022-12-09T07:17:24.808Z,0.70
2022-12-09T07:19:52.045Z,0.70
2022-12-09T07:22:19.132Z,0.60
2022-12-09T07:24:46.391Z,0.70
2022-12-09T07:27:19.184Z,0.60
2022-12-09T07:29:47.228Z,0.50
2022-12-09T07:32:14.904Z,0.60
2022-12-09T07:34:43.072Z,0.50
2022-12-09T07:37:10.291Z,0.50
2022-12-09T07:39:37.667Z,0.40
2022-12-09T07:42:05.195Z,0.40
2022-12-09T07:44:32.484Z,0.40
2022-12-09T07:47:00.171Z,0.40
2022-12-09T07:49:27.416Z,0.50
2022-12-09T07:51:54.329Z,0.60
2022-12-09T07:54:21.361Z,0.60
2022-12-09T07:56:48.782Z,0.60
2022-12-09T07:59:17.102Z,0.80
2022-12-09T08:01:44.824Z,0.80
2022-12-09T08:04:13.111Z,0.80
2022-12-09T08:06:40.416Z,0.80
2022-12-09T08:09:11.240Z,0.90
2022-12-09T08:11:38.713Z,1.00
2022-12-09T08:14:12.244Z,1.00
2022-12-09T08:16:41.873Z,1.00
2022-12-09T08:19:09.439Z,1.10
2022-12-09T08:21:37.065Z,1.20
2022-12-09T08:24:05.967Z,1.20
2022-12-09T08:26:34.544Z,1.20
2022-12-09T08:29:02.117Z,1.30
2022-12-09T08:31:30.306Z,1.30
2022-12-09T08:33:58.612Z,1.40
2022-12-09T08:36:28.199Z,1.40
2022-12-09T08:38:58.746Z,1.40
2022-12-09T08:41:36.575Z,1.50
2022-12-09T08:44:13.654Z,1.50
2022-12-09T08:46:43.679Z,1.50
2022-12-09T08:49:11.828Z,1.60
2022-12-09T08:51:39.835Z,1.60
2022-12-09T08:54:06.922Z,1.60
2022-12-09T08:56:34.594Z,1.50
2022-12-09T08:59:02.185Z,1.60
2022-12-09T09:01:35.902Z,1.60
2022-12-09T09:04:07.577Z,1.60
2022-12-09T09:06:39.518Z,1.60
2022-12-09T09:09:08.199Z,1.70
2022-12-09T09:11:36.560Z,1.80
2022-12-09T09:14:09.313Z,1.80
2022-12-09T09:16:39.775Z,1.80
2022-12-09T09:19:07.897Z,1.80
2022-12-09T09:21:35.887Z,1.70
2022-12-09T09:24:07.870Z,1.80
2022-12-09T09:26:35.028Z,1.90
2022-12-09T09:29:02.105Z,1.90
2022-12-09T09:31:29.076Z,1.90
2022-12-09T09:33:56.154Z,1.90
2022-12-09T09:36:24.875Z,1.80
2022-12-09T09:38:57.418Z,1.70
2022-12-09T09:41:55.371Z,1.70
2022-12-09T09:44:44.898Z,1.70
2022-12-09T09:47:22.578Z,1.70
2022-12-09T09:50:09.193Z,1.70
2022-12-09T09:52:38.818Z,1.60
2022-12-09T09:55:15.461Z,1.60
2022-12-09T09:57:51.759Z,1.60
2022-12-09T10:00:26.989Z,1.60
2022-12-09T10:03:12.065Z,1.60
2022-12-09T10:05:55.126Z,1.60
2022-12-09T10:08:33.785Z,1.60
2022-12-09T10:11:12.944Z,1.60
2022-12-09T10:13:50.970Z,1.70
2022-12-09T10:16:21.854Z,1.70
2022-12-09T10:19:28.559Z,1.80
2022-12-09T10:21:57.323Z,2.10
2022-12-09T10:24:40.080Z,2.20
2022-12-09T10:27:14.637Z,2.30
2022-12-09T10:29:51.437Z,2.30
2022-12-09T10:32:25.609Z,2.20
2022-12-09T10:34:53.128Z,2.20
2022-12-09T10:37:38.249Z,2.20
2022-12-09T10:40:22.092Z,2.30
2022-12-09T10:43:11.048Z,2.20
2022-12-09T10:46:16.862Z,2.20
2022-12-09T10:48:49.411Z,2.30
2022-12-09T10:51:27.019Z,2.30
2022-12-09T10:53:57.983Z,2.30
2022-12-09T10:56:40.045Z,2.30
2022-12-09T10:59:22.495Z,2.40
2022-12-09T11:02:01.990Z,2.50
2022-12-09T11:04:33.929Z,2.50
2022-12-09T11:07:14.946Z,2.50
2022-12-09T11:09:51.260Z,2.50
2022-12-09T11:12:29.954Z,2.60
2022-12-09T11:15:12.784Z,2.60
2022-12-09T11:17:55.805Z,2.60
2022-12-09T11:20:27.799Z,2.60
2022-12-09T11:23:04.561Z,2.60
2022-12-09T11:25:35.205Z,2.60
2022-12-09T11:28:03.443Z,2.60
2022-12-09T11:30:57.624Z,2.60
2022-12-09T11:33:36.612Z,2.70
2022-12-09T11:36:10.877Z,2.70
2022-12-09T11:38:45.438Z,2.70
2022-12-09T11:41:12.194Z,2.70
2022-12-09T11:43:44.040Z,2.70
2022-12-09T11:46:13.899Z,2.70
2022-12-09T11:49:00.912Z,2.70
2022-12-09T11:51:39.997Z,2.70
2022-12-09T11:54:23.906Z,2.70
2022-12-09T11:56:53.045Z,2.60
2022-12-09T11:59:23.809Z,2.60
2022-12-09T12:02:04.592Z,2.60
2022-12-09T12:04:37.689Z,2.60
2022-12-09T12:07:15.802Z,2.70
2022-12-09T12:09:55.593Z,2.60
2022-12-09T12:12:50.045Z,2.60
2022-12-09T12:15:24.811Z,2.60
2022-12-09T12:17:56.159Z,2.60
2022-12-09T12:20:48.631Z,2.60
2022-12-09T12:23:33.571Z,2.60
2022-12-09T12:26:24.171Z,2.60
2022-12-09T12:29:16.645Z,2.50
2022-12-09T12:31:49.248Z,2.60
2022-12-09T12:34:40.928Z,2.60
2022-12-09T12:37:39.019Z,2.60
2022-12-09T12:40:27.625Z,2.60
2022-12-09T12:43:49.059Z,2.60
2022-12-09T12:46:27.936Z,2.60
2022-12-09T12:49:26.097Z,2.50
2022-12-09T12:52:47.335Z,2.50
2022-12-09T12:55:19.735Z,2.50
2022-12-09T12:58:01.682Z,2.50
2022-12-09T13:00:37.700Z,2.50
2022-12-09T13:03:22.717Z,2.50
2022-12-09T13:05:52.012Z,2.50
2022-12-09T13:09:02.704Z,2.40
2022-12-09T13:11:50.920Z,2.40
2022-12-09T13:14:23.195Z,2.40
2022-12-09T13:16:51.136Z,2.30
2022-12-09T13:19:30.531Z,2.40
2022-12-09T13:21:57.910Z,2.30
2022-12-09T13:24:33.445Z,2.40
2022-12-09T13:27:09.330Z,2.30
2022-12-09T13:29:36.084Z,2.40
2022-12-09T13:32:27.533Z,2.40
2022-12-09T13:35:01.411Z,2.30
2022-12-09T13:37:34.766Z,2.20
2022-12-09T13:40:03.083Z,2.20
2022-12-09T13:43:02.098Z,2.20
2022-12-09T13:45:44.311Z,2.10
2022-12-09T13:48:16.565Z,2.10
2022-12-09T13:50:59.480Z,2.10
2022-12-09T13:53:33.786Z,2.10
2022-12-09T13:56:00.752Z,2.10
2022-12-09T13:58:36.870Z,2.10
2022-12-09T14:01:13.184Z,2.20
2022-12-09T14:04:03.188Z,2.10
2022-12-09T14:06:37.695Z,2.00
2022-12-09T14:09:19.457Z,2.00
2022-12-09T14:11:49.410Z,2.00
2022-12-09T14:14:25.344Z,1.90
2022-12-09T14:16:57.012Z,1.90
2022-12-09T14:19:23.827Z,1.80
2022-12-09T14:22:22.175Z,1.80
2022-12-09T14:24:53.443Z,1.70
2022-12-09T14:27:24.740Z,1.70
2022-12-09T14:29:53.404Z,1.70
2022-12-09T14:32:33.470Z,1.70
2022-12-09T14:35:06.279Z,1.60
2022-12-09T14:38:03.385Z,1.60
2022-12-09T14:40:37.502Z,1.50
2022-12-09T14:43:31.558Z,1.50
2022-12-09T14:46:17.610Z,1.40
2022-12-09T14:48:52.594Z,1.40
2022-12-09T14:51:49.957Z,1.40
2022-12-09T14:54:22.921Z,1.40
2022-12-09T14:56:52.796Z,1.30
2022-12-09T14:59:23.778Z,1.20
2022-12-09T15:01:58.036Z,1.20
2022-12-09T15:04:32.890Z,1.20
2022-12-09T15:07:27.690Z,1.20
2022-12-09T15:09:57.864Z,1.10
2022-12-09T15:12:48.947Z,1.10
2022-12-09T15:15:25.588Z,1.00
2022-12-09T15:18:00.627Z,0.90
2022-12-09T15:20:39.119Z,0.90
2022-12-09T15:23:17.743Z,0.90
2022-12-09T15:25:50.436Z,0.90
2022-12-09T15:28:37.362Z,0.90
2022-12-09T15:31:16.335Z,0.80
2022-12-09T15:33:45.727Z,0.70
2022-12-09T15:36:48.157Z,0.70
2022-12-09T15:39:27.481Z,0.60
2022-12-09T15:42:08.133Z,0.70
2022-12-09T15:44:45.339Z,0.70
2022-12-09T15:47:29.653Z,0.60
2022-12-09T15:50:04.830Z,0.50
2022-12-09T15:52:41.204Z,0.60
2022-12-09T15:55:14.376Z,0.50
2022-12-09T15:57:42.720Z,0.60
2022-12-09T16:00:10.651Z,0.50
2022-12-09T16:02:40.045Z,0.50
2022-12-09T16:05:09.722Z,0.40
2022-12-09T16:07:37.499Z,0.40
2022-12-09T16:10:15.633Z,0.30
2022-12-09T16:12:43.968Z,0.30
2022-12-09T16:15:14.521Z,0.30
2022-12-09T16:17:56.576Z,0.20
2022-12-09T16:20:34.872Z,0.30
2022-12-09T16:23:03.550Z,0.20
2022-12-09T16:25:38.009Z,0.20
2022-12-09T16:28:06.788Z,0.10
2022-12-09T16:30:45.025Z,0.10
2022-12-09T16:33:19.883Z,0.10
2022-12-09T16:36:02.235Z,0.00
2022-12-09T16:38:31.091Z,0.00
2022-12-09T16:41:04.028Z,0.00
2022-12-09T16:43:31.199Z,0.10
2022-12-09T16:46:19.296Z,0.10
2022-12-09T16:48:48.601Z,0.10
2022-12-09T16:51:20.309Z,0.20
2022-12-09T16:53:49.921Z,0.20
2022-12-09T16:56:24.948Z,0.20
2022-12-09T16:58:53.217Z,0.20
2022-12-09T17:01:23.322Z,0.20
2022-12-09T17:03:52.425Z,0.20
2022-12-09T17:06:20.613Z,0.20
2022-12-09T17:08:47.791Z,0.10
2022-12-09T17:11:16.894Z,0.10
2022-12-09T17:13:43.759Z,0.00
2022-12-09T17:16:10.755Z,0.10
2022-12-09T17:18:37.692Z,0.10
2022-12-09T17:21:10.550Z,0.20
2022-12-09T17:23:40.280Z,0.10
2022-12-09T17:26:09.342Z,0.20
2022-12-09T17:28:37.103Z,0.20
2022-12-09T17:31:09.599Z,0.20
2022-12-09T17:33:37.173Z,0.20
2022-12-09T17:36:05.056Z,0.10
2022-12-09T17:38:31.886Z,0.20
2022-12-09T17:41:07.050Z,0.10
2022-12-09T17:43:34.495Z,0.30
2022-12-09T17:46:02.527Z,0.20
2022-12-09T17:48:30.390Z,0.20
2022-12-09T17:50:57.484Z,0.20
2022-12-09T17:53:24.561Z,0.20
2022-12-09T17:55:51.397Z,0.20
2022-12-09T17:58:18.190Z,0.20
2022-12-09T18:00:45.094Z,0.20
2022-12-09T18:03:17.944Z,0.30
2022-12-09T18:05:49.080Z,0.30
2022-12-09T18:08:16.044Z,0.40
2022-12-09T18:10:44.173Z,0.40
2022-12-09T18:13:10.984Z,0.30
2022-12-09T18:15:37.869Z,0.30
2022-12-09T18:18:04.764Z,0.40
2022-12-09T18:20:31.584Z,0.40
2022-12-09T18:22:58.346Z,0.40
2022-12-09T18:25:25.184Z,0.40
2022-12-09T18:27:52.015Z,0.50
2022-12-09T18:30:18.890Z,0.40
2022-12-09T18:32:45.793Z,0.50
2022-12-09T18:35:12.620Z,0.50
2022-12-09T18:37:39.403Z,0.60
2022-12-09T18:40:07.112Z,0.60
2022-12-09T18:42:34.324Z,0.60
2022-12-09T18:45:01.106Z,0.60
2022-12-09T18:47:27.915Z,0.50
2022-12-09T18:49:54.722Z,0.60
2022-12-09T18:52:21.538Z,0.60
2022-12-09T18:54:48.339Z,0.60
2022-12-09T18:57:15.433Z,0.70
2022-12-09T18:59:42.355Z,0.60
2022-12-09T19:02:11.545Z,0.70
2022-12-09T19:04:38.428Z,0.50
2022-12-09T19:07:05.300Z,0.60
2022-12-09T19:09:34.743Z,0.70
2022-12-09T19:12:23.102Z,0.60
2022-12-09T19:14:49.948Z,0.70
2022-12-09T19:17:18.723Z,0.80
2022-12-09T19:19:47.232Z,0.80
2022-12-09T19:22:14.585Z,0.70
2022-12-09T19:24:43.264Z,0.70
2022-12-09T19:27:10.539Z,0.80
2022-12-09T19:29:37.556Z,0.90
2022-12-09T19:32:13.955Z,0.90
2022-12-09T19:34:50.781Z,0.90
2022-12-09T19:37:17.734Z,0.90
2022-12-09T19:39:46.514Z,0.90
2022-12-09T19:42:14.085Z,0.90
2022-12-09T19:47:27.720Z,0.90
2022-12-09T19:49:54.494Z,0.90
2022-12-09T19:52:21.336Z,0.90
2022-12-09T19:54:48.191Z,1.00
2022-12-09T19:57:15.031Z,1.10
2022-12-09T19:59:41.821Z,1.10
2022-12-09T20:02:12.057Z,1.10
2022-12-09T20:04:48.634Z,1.10
2022-12-09T20:07:17.074Z,1.10
2022-12-09T20:09:43.888Z,1.20
2022-12-09T20:12:12.423Z,1.20
2022-12-09T20:14:39.734Z,1.20
2022-12-09T20:17:07.758Z,1.10
2022-12-09T20:19:35.911Z,1.10
2022-12-09T20:22:02.935Z,1.10
2022-12-09T20:24:30.371Z,1.10
2022-12-09T20:26:57.196Z,1.10
2022-12-09T20:29:24.060Z,1.10
2022-12-09T20:31:51.065Z,1.00
2022-12-09T20:34:18.038Z,0.90
2022-12-09T20:36:45.990Z,1.00
2022-12-09T20:39:20.251Z,1.00
2022-12-09T20:41:48.007Z,1.00
2022-12-09T20:44:16.141Z,1.00
2022-12-09T20:46:47.309Z,1.00
2022-12-09T20:49:14.225Z,0.90
2022-12-09T20:51:45.080Z,0.90
2022-12-09T20:54:12.746Z,0.90
2022-12-09T20:56:39.582Z,0.90
2022-12-09T20:59:08.711Z,0.90
2022-12-09T21:01:37.559Z,0.90
2022-12-09T21:04:06.406Z,0.90
2022-12-09T21:06:36.693Z,0.90
2022-12-09T21:09:09.437Z,0.90
2022-12-09T21:11:37.307Z,1.00
2022-12-09T21:14:06.740Z,0.90
2022-12-09T21:16:37.781Z,0.90
2022-12-09T21:19:07.246Z,0.90
2022-12-09T21:21:38.335Z,0.90
2022-12-09T21:24:05.555Z,0.90
2022-12-09T21:26:32.450Z,0.80
2022-12-09T21:29:00.946Z,0.80
2022-12-09T21:31:33.769Z,0.70
2022-12-09T21:34:03.488Z,0.70
2022-12-09T21:36:36.585Z,0.60
2022-12-09T21:39:05.348Z,0.60
2022-12-09T21:41:34.873Z,0.60
2022-12-09T21:44:05.070Z,0.50
2022-12-09T21:46:34.154Z,0.50
2022-12-09T21:49:04.262Z,0.40
2022-12-09T21:51:32.727Z,0.30
2022-12-09T21:53:59.752Z,0.20
2022-12-09T21:56:30.516Z,0.10
2022-12-09T21:58:58.906Z,0.00
2022-12-09T22:01:27.283Z,-0.10
2022-12-09T22:03:55.160Z,-0.10
2022-12-09T22:06:22.592Z,-0.20
2022-12-09T22:08:49.909Z,-0.30
2022-12-09T22:11:22.613Z,-0.20
2022-12-09T22:13:49.997Z,-0.20
2022-12-09T22:16:26.251Z,0.00
2022-12-09T22:18:55.156Z,0.20
2022-12-09T22:21:25.593Z,0.30
2022-12-09T22:23:58.439Z,0.30
2022-12-09T22:26:26.336Z,0.40
2022-12-09T22:28:53.938Z,0.40
2022-12-09T22:31:24.134Z,0.50
2022-12-09T22:33:52.974Z,0.60
2022-12-09T22:36:20.513Z,0.60
2022-12-09T22:38:48.000Z,0.50
2022-12-09T22:41:20.338Z,0.50
2022-12-09T22:43:48.886Z,0.60
2022-12-09T22:46:20.808Z,0.60
2022-12-09T22:48:48.230Z,0.60
2022-12-09T22:51:27.598Z,0.60
2022-12-09T22:53:56.337Z,0.60
2022-12-09T22:56:24.914Z,0.60
2022-12-09T22:58:52.211Z,0.60
2022-12-09T23:01:27.920Z,0.60
2022-12-09T23:03:56.436Z,0.60
2022-12-09T23:06:24.868Z,0.60
2022-12-09T23:08:51.871Z,0.70
2022-12-09T23:11:21.303Z,0.70
2022-12-09T23:13:48.520Z,0.60
2022-12-09T23:16:21.676Z,0.60
2022-12-09T23:18:49.649Z,0.60
2022-12-09T23:21:19.547Z,0.60
2022-12-09T23:23:46.736Z,0.50
2022-12-09T23:26:19.174Z,0.60
2022-12-09T23:28:48.620Z,0.60
2022-12-09T23:31:17.794Z,0.50
2022-12-09T23:33:46.342Z,0.50
2022-12-09T23:36:21.575Z,0.60
2022-12-09T23:38:49.283Z,0.70
2022-12-09T23:41:17.732Z,0.70
2022-12-09T23:43:46.086Z,0.70
2022-12-09T23:46:16.315Z,0.70
2022-12-09T23:48:47.622Z,0.70
2022-12-09T23:51:14.372Z,0.60
2022-12-09T23:53:43.046Z,0.60
2022-12-09T23:56:18.493Z,0.60
2022-12-09T23:58:46.514Z,0.60
